sensor_id;sensor_type;location;lat;lon;timestamp;pressure;altitude;pressure_sealevel;temperature;humidity
7297;BME280;40758;54.038;11.684;2023-06-14T00:00:23;101764.13;;;9.94;77.80
7297;BME280;40758;54.038;11.684;2023-06-14T00:02:50;101769.47;;;9.88;77.97
7297;BME280;40758;54.038;11.684;2023-06-14T00:05:17;101764.47;;;10.06;79.48
7297;BME280;40758;54.038;11.684;2023-06-14T00:07:44;101762.38;;;10.08;79.33
7297;BME280;40758;54.038;11.684;2023-06-14T00:10:15;101765.56;;;10.11;79.81
7297;BME280;40758;54.038;11.684;2023-06-14T00:12:42;101766.19;;;10.28;80.68
7297;BME280;40758;54.038;11.684;2023-06-14T00:15:10;101769.66;;;10.44;81.11
7297;BME280;40758;54.038;11.684;2023-06-14T00:17:37;101762.66;;;10.56;80.94
7297;BME280;40758;54.038;11.684;2023-06-14T00:20:06;101767.25;;;10.55;80.90
7297;BME280;40758;54.038;11.684;2023-06-14T00:22:33;101773.28;;;10.51;80.65
7297;BME280;40758;54.038;11.684;2023-06-14T00:25:00;101765.66;;;10.39;80.40
7297;BME280;40758;54.038;11.684;2023-06-14T00:27:40;101767.59;;;10.24;80.01
7297;BME280;40758;54.038;11.684;2023-06-14T00:30:07;101776.78;;;10.23;80.49
7297;BME280;40758;54.038;11.684;2023-06-14T00:32:34;101777.72;;;10.16;80.33
7297;BME280;40758;54.038;11.684;2023-06-14T00:35:01;101780.09;;;10.04;80.41
7297;BME280;40758;54.038;11.684;2023-06-14T00:37:28;101782.28;;;9.94;80.08
7297;BME280;40758;54.038;11.684;2023-06-14T00:39:55;101786.53;;;9.81;80.16
7297;BME280;40758;54.038;11.684;2023-06-14T00:42:26;101785.97;;;9.71;80.24
7297;BME280;40758;54.038;11.684;2023-06-14T00:44:54;101787.09;;;9.62;80.05
7297;BME280;40758;54.038;11.684;2023-06-14T00:47:21;101784.72;;;9.52;80.03
7297;BME280;40758;54.038;11.684;2023-06-14T00:49:53;101779.56;;;9.43;80.26
7297;BME280;40758;54.038;11.684;2023-06-14T00:52:20;101774.91;;;9.37;80.58
7297;BME280;40758;54.038;11.684;2023-06-14T00:54:47;101775.94;;;9.36;80.92
7297;BME280;40758;54.038;11.684;2023-06-14T00:57:13;101773.41;;;9.34;81.20
7297;BME280;40758;54.038;11.684;2023-06-14T00:59:45;101773.16;;;9.29;81.20
7297;BME280;40758;54.038;11.684;2023-06-14T01:02:12;101779.22;;;9.31;81.49
7297;BME280;40758;54.038;11.684;2023-06-14T01:04:45;101773.50;;;9.26;81.67
7297;BME280;40758;54.038;11.684;2023-06-14T01:07:40;101784.53;;;9.24;81.68
7297;BME280;40758;54.038;11.684;2023-06-14T01:15:20;101787.53;;;9.29;82.18
7297;BME280;40758;54.038;11.684;2023-06-14T01:17:50;101781.72;;;9.32;82.77
7297;BME280;40758;54.038;11.684;2023-06-14T01:20:22;101786.22;;;9.25;82.62
7297;BME280;40758;54.038;11.684;2023-06-14T01:22:53;101780.31;;;9.22;82.69
7297;BME280;40758;54.038;11.684;2023-06-14T01:25:20;101783.78;;;9.30;83.49
7297;BME280;40758;54.038;11.684;2023-06-14T01:28:06;101773.59;;;9.32;83.54
7297;BME280;40758;54.038;11.684;2023-06-14T01:30:41;101787.34;;;9.31;83.32
7297;BME280;40758;54.038;11.684;2023-06-14T01:33:13;101791.63;;;9.25;83.07
7297;BME280;40758;54.038;11.684;2023-06-14T01:35:47;101794.81;;;9.44;83.99
7297;BME280;40758;54.038;11.684;2023-06-14T01:38:15;101792.94;;;9.44;84.20
7297;BME280;40758;54.038;11.684;2023-06-14T01:40:43;101806.97;;;9.48;84.09
7297;BME280;40758;54.038;11.684;2023-06-14T01:43:14;101801.66;;;9.40;83.77
7297;BME280;40758;54.038;11.684;2023-06-14T01:45:42;101796.88;;;9.27;83.66
7297;BME280;40758;54.038;11.684;2023-06-14T01:48:11;101799.19;;;9.15;83.73
7297;BME280;40758;54.038;11.684;2023-06-14T01:50:39;101802.56;;;9.02;83.25
7297;BME280;40758;54.038;11.684;2023-06-14T01:53:09;101801.13;;;8.92;83.88
7297;BME280;40758;54.038;11.684;2023-06-14T01:55:36;101809.34;;;8.84;83.61
7297;BME280;40758;54.038;11.684;2023-06-14T01:58:11;101820.84;;;8.86;84.12
7297;BME280;40758;54.038;11.684;2023-06-14T02:00:37;101816.84;;;8.82;84.08
7297;BME280;40758;54.038;11.684;2023-06-14T02:03:04;101811.88;;;8.85;84.64
7297;BME280;40758;54.038;11.684;2023-06-14T02:05:31;101817.22;;;8.93;85.21
7297;BME280;40758;54.038;11.684;2023-06-14T02:07:58;101817.28;;;8.85;84.55
7297;BME280;40758;54.038;11.684;2023-06-14T02:10:24;101822.94;;;8.75;84.33
7297;BME280;40758;54.038;11.684;2023-06-14T02:12:51;101817.81;;;8.66;84.57
7297;BME280;40758;54.038;11.684;2023-06-14T02:15:18;101820.13;;;8.54;84.69
7297;BME280;40758;54.038;11.684;2023-06-14T02:17:46;101814.94;;;8.44;84.86
7297;BME280;40758;54.038;11.684;2023-06-14T02:20:16;101816.69;;;8.37;84.45
7297;BME280;40758;54.038;11.684;2023-06-14T02:22:45;101820.53;;;8.35;84.97
7297;BME280;40758;54.038;11.684;2023-06-14T02:25:12;101819.25;;;8.31;84.54
7297;BME280;40758;54.038;11.684;2023-06-14T02:27:39;101829.75;;;8.25;84.43
7297;BME280;40758;54.038;11.684;2023-06-14T02:30:06;101824.66;;;8.31;84.87
7297;BME280;40758;54.038;11.684;2023-06-14T02:32:33;101827.63;;;8.44;85.59
7297;BME280;40758;54.038;11.684;2023-06-14T02:35:02;101810.56;;;8.43;86.32
7297;BME280;40758;54.038;11.684;2023-06-14T02:37:30;101823.13;;;8.59;86.26
7297;BME280;40758;54.038;11.684;2023-06-14T02:39:56;101827.13;;;8.63;86.61
7297;BME280;40758;54.038;11.684;2023-06-14T02:42:23;101824.81;;;8.60;86.05
7297;BME280;40758;54.038;11.684;2023-06-14T02:44:50;101817.41;;;8.54;85.87
7297;BME280;40758;54.038;11.684;2023-06-14T02:47:18;101823.16;;;8.51;85.96
7297;BME280;40758;54.038;11.684;2023-06-14T02:49:45;101825.75;;;8.44;86.09
7297;BME280;40758;54.038;11.684;2023-06-14T02:52:15;101824.72;;;8.45;86.11
7297;BME280;40758;54.038;11.684;2023-06-14T02:54:42;101829.38;;;8.37;85.92
7297;BME280;40758;54.038;11.684;2023-06-14T02:57:09;101837.50;;;8.37;86.04
7297;BME280;40758;54.038;11.684;2023-06-14T02:59:37;101834.91;;;8.43;86.16
7297;BME280;40758;54.038;11.684;2023-06-14T03:02:04;101828.59;;;8.51;86.39
7297;BME280;40758;54.038;11.684;2023-06-14T03:04:31;101821.38;;;8.43;86.63
7297;BME280;40758;54.038;11.684;2023-06-14T03:07:04;101824.09;;;8.43;86.59
7297;BME280;40758;54.038;11.684;2023-06-14T03:09:36;101820.47;;;8.51;86.55
7297;BME280;40758;54.038;11.684;2023-06-14T03:12:04;101827.00;;;8.57;87.03
7297;BME280;40758;54.038;11.684;2023-06-14T03:14:34;101815.00;;;8.59;87.00
7297;BME280;40758;54.038;11.684;2023-06-14T03:17:04;101821.56;;;8.65;87.36
7297;BME280;40758;54.038;11.684;2023-06-14T03:19:31;101825.09;;;8.65;87.40
7297;BME280;40758;54.038;11.684;2023-06-14T03:21:58;101831.16;;;8.67;87.08
7297;BME280;40758;54.038;11.684;2023-06-14T03:24:25;101828.56;;;8.74;86.88
7297;BME280;40758;54.038;11.684;2023-06-14T03:26:55;101824.78;;;8.83;87.79
7297;BME280;40758;54.038;11.684;2023-06-14T03:29:23;101836.53;;;8.90;87.55
7297;BME280;40758;54.038;11.684;2023-06-14T03:31:58;101839.91;;;8.92;87.53
7297;BME280;40758;54.038;11.684;2023-06-14T03:34:25;101835.72;;;8.90;87.09
7297;BME280;40758;54.038;11.684;2023-06-14T03:36:52;101843.75;;;8.98;87.55
7297;BME280;40758;54.038;11.684;2023-06-14T03:39:19;101833.28;;;8.95;87.16
7297;BME280;40758;54.038;11.684;2023-06-14T03:41:46;101844.56;;;8.98;86.75
7297;BME280;40758;54.038;11.684;2023-06-14T03:44:16;101849.09;;;9.06;87.48
7297;BME280;40758;54.038;11.684;2023-06-14T03:46:45;101845.72;;;9.04;87.40
7297;BME280;40758;54.038;11.684;2023-06-14T03:49:13;101853.69;;;9.05;87.33
7297;BME280;40758;54.038;11.684;2023-06-14T03:51:40;101856.84;;;9.09;87.40
7297;BME280;40758;54.038;11.684;2023-06-14T03:54:07;101859.50;;;9.17;87.25
7297;BME280;40758;54.038;11.684;2023-06-14T03:56:37;101861.25;;;9.25;87.59
7297;BME280;40758;54.038;11.684;2023-06-14T03:59:03;101867.72;;;9.39;87.58
7297;BME280;40758;54.038;11.684;2023-06-14T04:01:30;101859.50;;;9.47;87.42
7297;BME280;40758;54.038;11.684;2023-06-14T04:03:57;101867.06;;;9.66;87.19
7297;BME280;40758;54.038;11.684;2023-06-14T04:06:25;101867.16;;;9.88;87.14
7297;BME280;40758;54.038;11.684;2023-06-14T04:08:59;101870.22;;;9.84;86.79
7297;BME280;40758;54.038;11.684;2023-06-14T04:11:29;101865.94;;;9.75;86.81
7297;BME280;40758;54.038;11.684;2023-06-14T04:13:57;101866.31;;;9.72;86.99
7297;BME280;40758;54.038;11.684;2023-06-14T04:16:24;101862.69;;;9.65;86.90
7297;BME280;40758;54.038;11.684;2023-06-14T04:18:51;101868.66;;;9.60;86.92
7297;BME280;40758;54.038;11.684;2023-06-14T04:21:18;101864.25;;;9.59;86.92
7297;BME280;40758;54.038;11.684;2023-06-14T04:23:45;101873.44;;;9.58;86.89
7297;BME280;40758;54.038;11.684;2023-06-14T04:26:12;101869.50;;;9.61;87.04
7297;BME280;40758;54.038;11.684;2023-06-14T04:28:39;101870.16;;;9.63;87.07
7297;BME280;40758;54.038;11.684;2023-06-14T04:31:07;101873.53;;;9.65;87.08
7297;BME280;40758;54.038;11.684;2023-06-14T04:33:37;101875.38;;;9.79;87.29
7297;BME280;40758;54.038;11.684;2023-06-14T04:36:15;101866.03;;;9.82;87.31
7297;BME280;40758;54.038;11.684;2023-06-14T04:38:44;101873.50;;;9.95;87.42
7297;BME280;40758;54.038;11.684;2023-06-14T04:41:15;101872.72;;;10.73;87.35
7297;BME280;40758;54.038;11.684;2023-06-14T04:43:42;101870.66;;;12.01;86.91
7297;BME280;40758;54.038;11.684;2023-06-14T04:46:10;101868.75;;;13.22;85.95
7297;BME280;40758;54.038;11.684;2023-06-14T04:48:39;101868.72;;;13.48;84.91
7297;BME280;40758;54.038;11.684;2023-06-14T04:51:08;101871.53;;;13.93;83.60
7297;BME280;40758;54.038;11.684;2023-06-14T04:53:35;101870.31;;;14.66;82.83
7297;BME280;40758;54.038;11.684;2023-06-14T04:56:01;101861.56;;;15.32;81.90
7297;BME280;40758;54.038;11.684;2023-06-14T04:58:30;101862.28;;;16.01;80.65
7297;BME280;40758;54.038;11.684;2023-06-14T05:00:59;101867.34;;;16.75;79.84
7297;BME280;40758;54.038;11.684;2023-06-14T05:03:25;101870.38;;;17.33;78.35
7297;BME280;40758;54.038;11.684;2023-06-14T05:05:53;101870.47;;;17.85;77.46
7297;BME280;40758;54.038;11.684;2023-06-14T05:08:21;101872.69;;;18.11;75.22
7297;BME280;40758;54.038;11.684;2023-06-14T05:10:51;101868.97;;;18.46;74.49
7297;BME280;40758;54.038;11.684;2023-06-14T05:13:18;101862.38;;;18.75;73.69
7297;BME280;40758;54.038;11.684;2023-06-14T05:15:45;101873.38;;;19.09;72.64
7297;BME280;40758;54.038;11.684;2023-06-14T05:18:12;101873.78;;;19.34;71.53
7297;BME280;40758;54.038;11.684;2023-06-14T05:20:40;101871.44;;;19.60;70.65
7297;BME280;40758;54.038;11.684;2023-06-14T05:23:09;101880.34;;;19.67;69.07
7297;BME280;40758;54.038;11.684;2023-06-14T05:25:45;101879.00;;;19.91;68.55
7297;BME280;40758;54.038;11.684;2023-06-14T05:28:13;101870.13;;;20.11;67.99
7297;BME280;40758;54.038;11.684;2023-06-14T05:30:40;101872.38;;;20.36;67.28
7297;BME280;40758;54.038;11.684;2023-06-14T05:33:07;101875.69;;;20.38;65.38
7297;BME280;40758;54.038;11.684;2023-06-14T05:35:34;101882.63;;;20.68;65.17
7297;BME280;40758;54.038;11.684;2023-06-14T05:38:01;101878.84;;;20.74;62.79
7297;BME280;40758;54.038;11.684;2023-06-14T05:40:27;101878.47;;;20.97;62.69
7297;BME280;40758;54.038;11.684;2023-06-14T05:42:54;101885.94;;;21.29;62.19
7297;BME280;40758;54.038;11.684;2023-06-14T05:45:21;101886.63;;;21.46;61.30
7297;BME280;40758;54.038;11.684;2023-06-14T05:47:47;101879.66;;;21.86;61.09
7297;BME280;40758;54.038;11.684;2023-06-14T05:50:14;101882.28;;;22.13;60.21
7297;BME280;40758;54.038;11.684;2023-06-14T05:52:41;101893.09;;;22.25;58.66
7297;BME280;40758;54.038;11.684;2023-06-14T05:55:08;101897.88;;;22.45;58.36
7297;BME280;40758;54.038;11.684;2023-06-14T05:57:35;101888.19;;;22.57;57.26
7297;BME280;40758;54.038;11.684;2023-06-14T06:00:02;101896.25;;;22.64;55.74
7297;BME280;40758;54.038;11.684;2023-06-14T06:02:37;101891.59;;;23.16;56.33
7297;BME280;40758;54.038;11.684;2023-06-14T06:05:04;101893.47;;;23.51;55.44
7297;BME280;40758;54.038;11.684;2023-06-14T06:07:32;101888.22;;;23.54;53.84
7297;BME280;40758;54.038;11.684;2023-06-14T06:10:04;101900.13;;;23.65;52.88
7297;BME280;40758;54.038;11.684;2023-06-14T06:12:32;101889.28;;;23.74;52.06
7297;BME280;40758;54.038;11.684;2023-06-14T06:14:59;101898.41;;;23.84;51.83
7297;BME280;40758;54.038;11.684;2023-06-14T06:17:26;101894.75;;;23.94;50.72
7297;BME280;40758;54.038;11.684;2023-06-14T06:20:08;101901.84;;;24.21;50.13
7297;BME280;40758;54.038;11.684;2023-06-14T06:22:36;101890.72;;;24.26;48.77
7297;BME280;40758;54.038;11.684;2023-06-14T06:25:03;101888.94;;;24.50;48.86
7297;BME280;40758;54.038;11.684;2023-06-14T06:27:29;101892.25;;;24.52;48.33
7297;BME280;40758;54.038;11.684;2023-06-14T06:29:56;101901.44;;;24.53;46.74
7297;BME280;40758;54.038;11.684;2023-06-14T06:32:23;101905.31;;;24.52;46.61
7297;BME280;40758;54.038;11.684;2023-06-14T06:34:49;101892.06;;;24.83;46.38
7297;BME280;40758;54.038;11.684;2023-06-14T06:37:16;101896.88;;;25.11;46.33
7297;BME280;40758;54.038;11.684;2023-06-14T06:39:43;101903.00;;;25.08;45.15
7297;BME280;40758;54.038;11.684;2023-06-14T06:42:10;101901.09;;;25.33;45.85
7297;BME280;40758;54.038;11.684;2023-06-14T06:44:37;101904.31;;;25.45;44.70
7297;BME280;40758;54.038;11.684;2023-06-14T06:47:04;101908.50;;;25.42;43.62
7297;BME280;40758;54.038;11.684;2023-06-14T06:49:31;101912.75;;;25.06;41.86
7297;BME280;40758;54.038;11.684;2023-06-14T06:52:01;101912.81;;;24.51;42.14
7297;BME280;40758;54.038;11.684;2023-06-14T06:54:30;101920.50;;;25.04;42.46
7297;BME280;40758;54.038;11.684;2023-06-14T06:56:57;101920.38;;;25.24;42.58
7297;BME280;40758;54.038;11.684;2023-06-14T06:59:24;101923.09;;;24.95;41.13
7297;BME280;40758;54.038;11.684;2023-06-14T07:01:51;101929.78;;;24.89;41.03
7297;BME280;40758;54.038;11.684;2023-06-14T07:04:20;101931.59;;;25.04;42.36
7297;BME280;40758;54.038;11.684;2023-06-14T07:06:47;101924.16;;;25.62;42.93
7297;BME280;40758;54.038;11.684;2023-06-14T07:09:14;101923.38;;;25.57;41.00
7297;BME280;40758;54.038;11.684;2023-06-14T07:11:43;101920.06;;;24.86;40.07
7297;BME280;40758;54.038;11.684;2023-06-14T07:14:11;101931.91;;;25.65;42.07
7297;BME280;40758;54.038;11.684;2023-06-14T07:16:38;101931.47;;;26.06;41.85
7297;BME280;40758;54.038;11.684;2023-06-14T07:19:05;101935.63;;;25.85;40.29
7297;BME280;40758;54.038;11.684;2023-06-14T07:21:32;101934.06;;;25.73;40.53
7297;BME280;40758;54.038;11.684;2023-06-14T07:23:58;101933.19;;;26.02;40.84
7297;BME280;40758;54.038;11.684;2023-06-14T07:26:25;101935.00;;;25.64;40.21
7297;BME280;40758;54.038;11.684;2023-06-14T07:28:52;101927.25;;;25.32;39.52
7297;BME280;40758;54.038;11.684;2023-06-14T07:31:19;101928.72;;;25.53;41.15
7297;BME280;40758;54.038;11.684;2023-06-14T07:33:46;101934.69;;;25.65;39.98
7297;BME280;40758;54.038;11.684;2023-06-14T07:36:12;101935.41;;;25.81;39.80
7297;BME280;40758;54.038;11.684;2023-06-14T07:38:39;101937.50;;;26.13;39.89
7297;BME280;40758;54.038;11.684;2023-06-14T07:41:07;101933.09;;;25.59;37.82
7297;BME280;40758;54.038;11.684;2023-06-14T07:43:34;101937.84;;;25.59;40.34
7297;BME280;40758;54.038;11.684;2023-06-14T07:46:00;101935.44;;;25.18;38.76
7297;BME280;40758;54.038;11.684;2023-06-14T07:48:34;101926.44;;;25.55;39.05
7297;BME280;40758;54.038;11.684;2023-06-14T07:51:01;101934.19;;;26.11;39.22
7297;BME280;40758;54.038;11.684;2023-06-14T07:53:28;101929.66;;;25.67;37.64
7297;BME280;40758;54.038;11.684;2023-06-14T07:55:54;101927.59;;;26.50;38.91
7297;BME280;40758;54.038;11.684;2023-06-14T07:58:21;101928.63;;;26.73;38.48
7297;BME280;40758;54.038;11.684;2023-06-14T08:00:48;101931.50;;;26.87;37.41
7297;BME280;40758;54.038;11.684;2023-06-14T08:03:15;101936.25;;;26.86;36.97
7297;BME280;40758;54.038;11.684;2023-06-14T08:05:42;101937.28;;;26.71;35.81
7297;BME280;40758;54.038;11.684;2023-06-14T08:08:09;101941.19;;;26.89;37.11
7297;BME280;40758;54.038;11.684;2023-06-14T08:10:35;101945.13;;;26.88;36.79
7297;BME280;40758;54.038;11.684;2023-06-14T08:13:02;101945.34;;;26.92;36.78
7297;BME280;40758;54.038;11.684;2023-06-14T08:15:29;101943.09;;;27.13;35.53
7297;BME280;40758;54.038;11.684;2023-06-14T08:17:56;101945.09;;;27.26;36.20
7297;BME280;40758;54.038;11.684;2023-06-14T08:20:23;101950.59;;;27.31;35.86
7297;BME280;40758;54.038;11.684;2023-06-14T08:22:50;101947.06;;;27.25;36.02
7297;BME280;40758;54.038;11.684;2023-06-14T08:25:22;101935.34;;;26.10;35.53
7297;BME280;40758;54.038;11.684;2023-06-14T08:27:48;101940.28;;;26.13;36.39
7297;BME280;40758;54.038;11.684;2023-06-14T08:30:16;101941.75;;;26.30;36.07
7297;BME280;40758;54.038;11.684;2023-06-14T08:32:43;101935.13;;;26.68;35.87
7297;BME280;40758;54.038;11.684;2023-06-14T08:35:10;101934.94;;;27.16;35.93
7297;BME280;40758;54.038;11.684;2023-06-14T08:37:42;101939.19;;;27.14;34.25
7297;BME280;40758;54.038;11.684;2023-06-14T08:40:30;101938.91;;;27.29;34.81
7297;BME280;40758;54.038;11.684;2023-06-14T08:42:57;101938.78;;;27.20;33.60
7297;BME280;40758;54.038;11.684;2023-06-14T08:45:24;101939.28;;;27.55;34.33
7297;BME280;40758;54.038;11.684;2023-06-14T08:47:54;101934.19;;;25.63;33.75
7297;BME280;40758;54.038;11.684;2023-06-14T08:50:26;101938.16;;;26.29;35.08
7297;BME280;40758;54.038;11.684;2023-06-14T08:53:01;101935.34;;;26.72;35.08
7297;BME280;40758;54.038;11.684;2023-06-14T08:55:31;101940.38;;;26.70;33.52
7297;BME280;40758;54.038;11.684;2023-06-14T08:58:03;101933.56;;;26.62;33.39
7297;BME280;40758;54.038;11.684;2023-06-14T09:00:31;101950.91;;;26.54;34.27
7297;BME280;40758;54.038;11.684;2023-06-14T09:03:00;101944.53;;;26.91;33.90
7297;BME280;40758;54.038;11.684;2023-06-14T09:05:28;101945.81;;;26.80;32.52
7297;BME280;40758;54.038;11.684;2023-06-14T09:07:55;101940.97;;;27.04;33.00
7297;BME280;40758;54.038;11.684;2023-06-14T09:10:31;101938.78;;;27.20;33.29
7297;BME280;40758;54.038;11.684;2023-06-14T09:13:04;101941.16;;;26.33;31.03
7297;BME280;40758;54.038;11.684;2023-06-14T09:15:31;101942.19;;;26.98;32.22
7297;BME280;40758;54.038;11.684;2023-06-14T09:18:01;101948.28;;;26.82;29.53
7297;BME280;40758;54.038;11.684;2023-06-14T09:20:29;101936.63;;;26.79;30.00
7297;BME280;40758;54.038;11.684;2023-06-14T09:22:56;101943.53;;;26.82;30.50
7297;BME280;40758;54.038;11.684;2023-06-14T09:25:23;101943.16;;;27.26;31.26
7297;BME280;40758;54.038;11.684;2023-06-14T09:28:08;101943.09;;;27.59;31.29
7297;BME280;40758;54.038;11.684;2023-06-14T09:30:38;101939.13;;;27.93;31.42
7297;BME280;40758;54.038;11.684;2023-06-14T09:33:05;101932.94;;;27.96;30.44
7297;BME280;40758;54.038;11.684;2023-06-14T09:35:32;101931.47;;;27.71;30.59
7297;BME280;40758;54.038;11.684;2023-06-14T09:37:59;101929.31;;;27.81;31.00
7297;BME280;40758;54.038;11.684;2023-06-14T09:40:26;101934.28;;;27.38;29.38
7297;BME280;40758;54.038;11.684;2023-06-14T09:42:54;101934.88;;;27.21;30.31
7297;BME280;40758;54.038;11.684;2023-06-14T09:45:22;101932.19;;;27.30;30.80
7297;BME280;40758;54.038;11.684;2023-06-14T09:47:49;101931.41;;;27.43;31.24
7297;BME280;40758;54.038;11.684;2023-06-14T09:50:31;101925.00;;;27.43;30.58
7297;BME280;40758;54.038;11.684;2023-06-14T09:53:07;101930.59;;;27.43;30.76
7297;BME280;40758;54.038;11.684;2023-06-14T09:55:37;101923.88;;;27.44;31.79
7297;BME280;40758;54.038;11.684;2023-06-14T09:58:06;101922.50;;;27.41;31.56
7297;BME280;40758;54.038;11.684;2023-06-14T10:00:35;101922.97;;;27.16;31.87
7297;BME280;40758;54.038;11.684;2023-06-14T10:03:16;101913.69;;;27.01;30.19
7297;BME280;40758;54.038;11.684;2023-06-14T10:05:46;101925.03;;;27.56;32.42
7297;BME280;40758;54.038;11.684;2023-06-14T10:08:19;101923.53;;;27.31;30.89
7297;BME280;40758;54.038;11.684;2023-06-14T10:10:46;101908.94;;;26.50;31.40
7297;BME280;40758;54.038;11.684;2023-06-14T10:13:13;101916.06;;;26.75;32.12
7297;BME280;40758;54.038;11.684;2023-06-14T10:15:55;101910.03;;;26.87;32.96
7297;BME280;40758;54.038;11.684;2023-06-14T10:18:49;101912.19;;;26.34;32.05
7297;BME280;40758;54.038;11.684;2023-06-14T10:21:37;101910.34;;;26.48;32.51
7297;BME280;40758;54.038;11.684;2023-06-14T10:24:10;101917.16;;;26.37;32.29
7297;BME280;40758;54.038;11.684;2023-06-14T10:26:58;101915.88;;;26.29;31.74
7297;BME280;40758;54.038;11.684;2023-06-14T10:29:29;101910.59;;;26.51;32.04
7297;BME280;40758;54.038;11.684;2023-06-14T10:32:00;101907.72;;;26.57;32.05
7297;BME280;40758;54.038;11.684;2023-06-14T10:34:31;101904.78;;;26.86;31.94
7297;BME280;40758;54.038;11.684;2023-06-14T10:37:13;101905.72;;;26.95;31.46
7297;BME280;40758;54.038;11.684;2023-06-14T10:39:42;101903.63;;;26.49;31.18
7297;BME280;40758;54.038;11.684;2023-06-14T10:42:09;101904.22;;;26.27;30.47
7297;BME280;40758;54.038;11.684;2023-06-14T10:44:40;101897.44;;;26.33;31.06
7297;BME280;40758;54.038;11.684;2023-06-14T10:47:10;101898.13;;;26.44;31.08
7297;BME280;40758;54.038;11.684;2023-06-14T10:49:45;101895.66;;;26.42;31.02
7297;BME280;40758;54.038;11.684;2023-06-14T10:52:14;101903.13;;;26.47;30.88
7297;BME280;40758;54.038;11.684;2023-06-14T10:55:11;101895.91;;;26.46;30.86
7297;BME280;40758;54.038;11.684;2023-06-14T10:57:53;101897.50;;;26.09;30.28
7297;BME280;40758;54.038;11.684;2023-06-14T11:00:27;101897.34;;;26.19;29.88
7297;BME280;40758;54.038;11.684;2023-06-14T11:05:53;101892.16;;;26.32;29.37
7297;BME280;40758;54.038;11.684;2023-06-14T11:08:39;101888.97;;;26.43;29.28
7297;BME280;40758;54.038;11.684;2023-06-14T11:11:09;101888.84;;;26.30;29.09
7297;BME280;40758;54.038;11.684;2023-06-14T11:13:41;101886.94;;;26.49;28.34
7297;BME280;40758;54.038;11.684;2023-06-14T11:16:12;101895.38;;;26.01;27.94
7297;BME280;40758;54.038;11.684;2023-06-14T11:18:40;101886.53;;;26.37;27.77
7297;BME280;40758;54.038;11.684;2023-06-14T11:21:07;101883.94;;;26.64;27.71
7297;BME280;40758;54.038;11.684;2023-06-14T11:23:35;101879.25;;;26.41;26.74
7297;BME280;40758;54.038;11.684;2023-06-14T11:26:03;101880.38;;;26.21;27.67
7297;BME280;40758;54.038;11.684;2023-06-14T11:28:38;101883.94;;;26.45;28.12
7297;BME280;40758;54.038;11.684;2023-06-14T11:31:05;101878.41;;;26.40;26.89
7297;BME280;40758;54.038;11.684;2023-06-14T11:33:33;101878.06;;;26.47;26.56
7297;BME280;40758;54.038;11.684;2023-06-14T11:36:03;101877.25;;;26.04;26.51
7297;BME280;40758;54.038;11.684;2023-06-14T11:38:37;101878.75;;;26.15;26.31
7297;BME280;40758;54.038;11.684;2023-06-14T11:41:04;101882.31;;;25.72;25.95
7297;BME280;40758;54.038;11.684;2023-06-14T11:43:31;101873.13;;;25.24;27.11
7297;BME280;40758;54.038;11.684;2023-06-14T11:46:00;101872.06;;;25.68;27.54
7297;BME280;40758;54.038;11.684;2023-06-14T11:48:41;101861.97;;;26.01;26.58
7297;BME280;40758;54.038;11.684;2023-06-14T11:51:08;101868.31;;;26.25;26.87
7297;BME280;40758;54.038;11.684;2023-06-14T11:53:35;101854.00;;;26.32;26.39
7297;BME280;40758;54.038;11.684;2023-06-14T11:56:02;101869.13;;;26.07;25.69
7297;BME280;40758;54.038;11.684;2023-06-14T11:58:29;101864.31;;;26.32;25.78
7297;BME280;40758;54.038;11.684;2023-06-14T12:00:57;101868.16;;;26.36;25.67
7297;BME280;40758;54.038;11.684;2023-06-14T12:03:25;101869.88;;;26.32;24.94
7297;BME280;40758;54.038;11.684;2023-06-14T12:06:07;101866.53;;;26.35;25.00
7297;BME280;40758;54.038;11.684;2023-06-14T12:08:36;101856.91;;;25.84;24.59
7297;BME280;40758;54.038;11.684;2023-06-14T12:11:11;101861.38;;;24.98;25.48
7297;BME280;40758;54.038;11.684;2023-06-14T12:13:38;101869.47;;;25.29;26.46
7297;BME280;40758;54.038;11.684;2023-06-14T12:16:10;101855.56;;;25.29;26.03
7297;BME280;40758;54.038;11.684;2023-06-14T12:18:39;101857.38;;;25.38;25.62
7297;BME280;40758;54.038;11.684;2023-06-14T12:21:07;101860.19;;;25.62;25.74
7297;BME280;40758;54.038;11.684;2023-06-14T12:23:46;101856.66;;;26.05;25.98
7297;BME280;40758;54.038;11.684;2023-06-14T12:26:18;101858.72;;;25.94;25.26
7297;BME280;40758;54.038;11.684;2023-06-14T12:28:46;101851.88;;;25.33;24.83
7297;BME280;40758;54.038;11.684;2023-06-14T12:31:15;101856.88;;;25.36;25.62
7297;BME280;40758;54.038;11.684;2023-06-14T12:33:42;101852.38;;;25.64;25.63
7297;BME280;40758;54.038;11.684;2023-06-14T12:36:10;101861.59;;;26.08;25.53
7297;BME280;40758;54.038;11.684;2023-06-14T12:38:37;101858.81;;;26.08;24.77
7297;BME280;40758;54.038;11.684;2023-06-14T12:41:04;101853.03;;;26.23;25.36
7297;BME280;40758;54.038;11.684;2023-06-14T12:43:31;101854.13;;;26.03;24.77
7297;BME280;40758;54.038;11.684;2023-06-14T12:45:58;101842.53;;;25.77;24.32
7297;BME280;40758;54.038;11.684;2023-06-14T12:48:25;101852.81;;;26.19;25.12
7297;BME280;40758;54.038;11.684;2023-06-14T12:50:53;101851.56;;;25.88;24.30
7297;BME280;40758;54.038;11.684;2023-06-14T12:53:20;101841.09;;;26.22;24.55
7297;BME280;40758;54.038;11.684;2023-06-14T12:55:47;101854.03;;;25.65;24.71
7297;BME280;40758;54.038;11.684;2023-06-14T12:58:14;101844.88;;;25.89;25.43
7297;BME280;40758;54.038;11.684;2023-06-14T13:00:41;101848.00;;;26.06;25.07
7297;BME280;40758;54.038;11.684;2023-06-14T13:03:10;101850.38;;;25.70;24.86
7297;BME280;40758;54.038;11.684;2023-06-14T13:05:37;101849.38;;;25.85;24.41
7297;BME280;40758;54.038;11.684;2023-06-14T13:08:07;101848.69;;;26.17;25.34
7297;BME280;40758;54.038;11.684;2023-06-14T13:10:38;101846.50;;;26.70;25.21